Time;durP1;ratioP1;P1;durP2;ratioP2;P2;SDS_P1;SDS_P2;PMS_P1;PMS_P2;Temp;Humidity;BMP_temperature;BMP_pressure;BME280_temperature;BME280_humidity;BME280_pressure;Samples;Min_cycle;Max_cycle;Signal;HPM_P1;HPM_P2
2020/12/01 00:01:29;;;;;;;16.02;7.90;;;;;;;;;;5073079;28;20082;-53
2020/12/01 00:03:56;;;;;;;28.63;11.63;;;;;;;;;;5073000;28;20037;-53
2020/12/01 00:06:22;;;;;;;19.77;8.70;;;;;;;;;;5072956;28;20433;-53
2020/12/01 00:08:48;;;;;;;9.15;4.18;;;;;;;;;;5072793;28;20036;-53
2020/12/01 00:11:14;;;;;;;12.57;6.95;;;;;;;;;;5072560;28;20033;-53
2020/12/01 00:13:40;;;;;;;9.82;4.70;;;;;;;;;;5073057;28;20025;-53
2020/12/01 00:16:10;;;;;;;16.75;7.40;;;;;;;;;;5072619;28;20029;-53
2020/12/01 00:18:36;;;;;;;20.08;7.70;;;;;;;;;;5072659;28;20032;-53
2020/12/01 00:21:02;;;;;;;17.42;7.70;;;;;;;;;;5072721;28;20086;-52
2020/12/01 00:23:28;;;;;;;29.60;9.80;;;;;;;;;;5072894;28;20033;-53
2020/12/01 00:25:54;;;;;;;27.38;8.85;;;;;;;;;;5071994;28;20124;-53
2020/12/01 00:28:20;;;;;;;4.20;1.92;;;;;;;;;;5071961;28;20111;-53
2020/12/01 00:30:46;;;;;;;26.27;9.55;;;;;;;;;;5072583;28;20028;-53
2020/12/01 00:33:12;;;;;;;25.48;10.93;;;;;;;;;;5072825;28;20545;-52
2020/12/01 00:35:39;;;;;;;23.30;5.55;;;;;;;;;;5072405;28;20021;-53
2020/12/01 00:38:05;;;;;;;32.80;13.20;;;;;;;;;;5071931;28;20021;-53
2020/12/01 00:40:31;;;;;;;12.85;6.45;;;;;;;;;;5071785;28;20033;-53
2020/12/01 00:42:57;;;;;;;23.58;9.98;;;;;;;;;;5072528;28;20085;-53
2020/12/01 00:45:23;;;;;;;22.48;7.47;;;;;;;;;;5072433;28;20081;-53
2020/12/01 00:47:49;;;;;;;18.50;8.30;;;;;;;;;;5071537;28;20044;-53
2020/12/01 00:50:18;;;;;;;18.48;9.48;;;;;;;;;;5072104;28;20046;-53
2020/12/01 00:52:44;;;;;;;24.67;10.27;;;;;;;;;;5071928;28;20032;-53
2020/12/01 00:55:10;;;;;;;26.52;8.57;;;;;;;;;;5071713;28;20470;-53
2020/12/01 00:57:36;;;;;;;21.27;9.88;;;;;;;;;;5071421;28;20032;-53
2020/12/01 01:00:08;;;;;;;26.73;8.88;;;;;;;;;;5071948;28;20028;-53
2020/12/01 01:02:34;;;;;;;9.10;3.35;;;;;;;;;;5071936;28;20078;-53
2020/12/01 01:05:00;;;;;;;10.98;5.68;;;;;;;;;;5071861;28;20082;-53
2020/12/01 01:07:26;;;;;;;31.48;11.68;;;;;;;;;;5071344;28;20036;-53
2020/12/01 01:09:52;;;;;;;32.65;13.07;;;;;;;;;;5071669;28;20028;-52
2020/12/01 01:12:18;;;;;;;9.95;5.90;;;;;;;;;;5071847;28;20115;-52
2020/12/01 01:14:44;;;;;;;23.98;8.85;;;;;;;;;;5071496;28;20024;-53
2020/12/01 01:17:10;;;;;;;18.52;7.18;;;;;;;;;;5071388;28;20024;-53
2020/12/01 01:19:36;;;;;;;24.77;10.77;;;;;;;;;;5071299;28;20482;-53
2020/12/01 01:22:02;;;;;;;23.42;9.70;;;;;;;;;;5071408;28;20111;-53
2020/12/01 01:24:28;;;;;;;6.97;3.60;;;;;;;;;;5071322;28;20033;-53
2020/12/01 01:26:54;;;;;;;23.15;8.25;;;;;;;;;;5071490;28;20074;-53
2020/12/01 01:29:22;;;;;;;21.80;9.25;;;;;;;;;;5071279;28;20040;-53
2020/12/01 01:31:48;;;;;;;20.15;8.27;;;;;;;;;;5071497;28;20035;-53
2020/12/01 01:34:14;;;;;;;15.20;6.97;;;;;;;;;;5071222;28;20100;-54
2020/12/01 01:36:40;;;;;;;28.08;11.65;;;;;;;;;;5070786;28;20083;-53
2020/12/01 01:39:07;;;;;;;27.33;9.98;;;;;;;;;;5071072;28;20360;-53
2020/12/01 01:41:34;;;;;;;27.50;8.80;;;;;;;;;;5071315;28;20162;-52
2020/12/01 01:44:01;;;;;;;23.42;8.93;;;;;;;;;;5071252;28;20151;-53
2020/12/01 01:46:32;;;;;;;24.15;9.27;;;;;;;;;;5070719;28;20086;-53
2020/12/01 01:48:58;;;;;;;27.88;10.77;;;;;;;;;;5070469;28;20036;-53
2020/12/01 01:51:24;;;;;;;27.90;12.40;;;;;;;;;;5070494;28;20044;-53
2020/12/01 01:53:52;;;;;;;29.05;10.57;;;;;;;;;;5071176;28;20071;-53
2020/12/01 01:56:20;;;;;;;27.15;10.80;;;;;;;;;;5070999;28;20475;-53
2020/12/01 01:58:46;;;;;;;20.25;8.95;;;;;;;;;;5066154;28;20028;-53
2020/12/01 02:01:14;;;;;;;30.80;11.45;;;;;;;;;;5070115;28;20036;-55
2020/12/01 02:03:48;;;;;;;38.47;12.70;;;;;;;;;;5070915;28;20056;-53
2020/12/01 02:06:14;;;;;;;23.15;9.95;;;;;;;;;;5070895;28;20487;-53
2020/12/01 02:08:41;;;;;;;11.73;5.20;;;;;;;;;;5070416;28;20087;-53
2020/12/01 02:11:07;;;;;;;33.08;12.50;;;;;;;;;;5070652;28;20483;-52
2020/12/01 02:13:39;;;;;;;26.48;10.07;;;;;;;;;;5070662;28;20384;-53
2020/12/01 02:16:05;;;;;;;32.65;11.93;;;;;;;;;;5071049;28;20055;-53
2020/12/01 02:18:32;;;;;;;33.17;11.60;;;;;;;;;;5069019;28;20466;-53
2020/12/01 02:20:59;;;;;;;20.25;8.05;;;;;;;;;;5070471;28;20021;-53
2020/12/01 02:23:25;;;;;;;15.00;7.45;;;;;;;;;;5070620;28;20091;-53
2020/12/01 02:25:51;;;;;;;31.55;11.57;;;;;;;;;;5070987;28;20031;-53
2020/12/01 02:28:17;;;;;;;24.02;10.30;;;;;;;;;;5069875;28;20495;-53
2020/12/01 02:30:43;;;;;;;24.65;8.60;;;;;;;;;;5070479;28;20028;-53
2020/12/01 02:33:09;;;;;;;30.92;10.02;;;;;;;;;;5070204;28;20035;-53
2020/12/01 02:35:35;;;;;;;25.67;10.40;;;;;;;;;;5070273;28;20032;-53
2020/12/01 02:38:01;;;;;;;20.98;8.63;;;;;;;;;;5070098;28;20386;-52
2020/12/01 02:40:27;;;;;;;14.45;5.40;;;;;;;;;;5070576;28;20111;-53
2020/12/01 02:42:54;;;;;;;26.85;10.60;;;;;;;;;;5054433;28;20199;-52
2020/12/01 02:45:20;;;;;;;15.85;5.65;;;;;;;;;;5050245;28;20025;-54
2020/12/01 02:47:46;;;;;;;17.42;6.68;;;;;;;;;;5049034;28;20087;-53
2020/12/01 02:50:13;;;;;;;29.98;11.77;;;;;;;;;;5050202;28;20529;-53
2020/12/01 02:52:39;;;;;;;29.00;10.38;;;;;;;;;;5050103;28;20383;-52
2020/12/01 02:55:06;;;;;;;22.77;9.57;;;;;;;;;;5049942;28;20033;-53
2020/12/01 02:57:32;;;;;;;29.33;11.80;;;;;;;;;;5049799;28;20425;-53
2020/12/01 02:59:57;;;;;;;27.17;9.80;;;;;;;;;;5059758;28;20107;-53
2020/12/01 03:02:23;;;;;;;32.42;10.88;;;;;;;;;;5069815;28;20032;-53
2020/12/01 03:04:49;;;;;;;20.90;8.48;;;;;;;;;;5069055;28;20376;-53
2020/12/01 03:07:15;;;;;;;23.60;8.10;;;;;;;;;;5069243;28;20036;-53
2020/12/01 03:09:41;;;;;;;26.10;10.40;;;;;;;;;;5070197;28;20085;-53
2020/12/01 03:12:07;;;;;;;16.35;7.75;;;;;;;;;;5069967;28;20047;-52
2020/12/01 03:14:33;;;;;;;20.63;8.27;;;;;;;;;;5069944;28;20043;-53
2020/12/01 03:16:59;;;;;;;25.08;10.60;;;;;;;;;;5069336;28;20471;-53
2020/12/01 03:19:25;;;;;;;27.73;8.80;;;;;;;;;;5069768;28;20020;-53
2020/12/01 03:21:51;;;;;;;25.23;9.30;;;;;;;;;;5067612;28;20437;-53
2020/12/01 03:24:17;;;;;;;18.08;6.93;;;;;;;;;;5067840;28;20028;-53
2020/12/01 03:26:44;;;;;;;18.17;6.90;;;;;;;;;;5058306;28;20047;-53
2020/12/01 03:29:10;;;;;;;14.70;6.30;;;;;;;;;;5068851;28;20044;-54
2020/12/01 03:31:36;;;;;;;23.33;9.27;;;;;;;;;;5071928;28;20082;-52
2020/12/01 03:34:02;;;;;;;20.15;6.63;;;;;;;;;;5072594;28;20043;-53
2020/12/01 03:36:28;;;;;;;2.65;2.03;;;;;;;;;;5073067;28;20024;-53
2020/12/01 03:38:54;;;;;;;25.90;8.52;;;;;;;;;;5073303;28;20040;-53
2020/12/01 03:41:20;;;;;;;16.40;7.78;;;;;;;;;;5073150;28;20375;-53
2020/12/01 03:43:46;;;;;;;26.35;9.82;;;;;;;;;;5072570;28;20024;-53
2020/12/01 03:46:12;;;;;;;25.23;8.23;;;;;;;;;;5072928;28;20029;-53
2020/12/01 03:48:38;;;;;;;3.65;2.25;;;;;;;;;;5072023;28;20056;-52
2020/12/01 03:51:04;;;;;;;22.88;9.27;;;;;;;;;;5072602;28;20036;-53
2020/12/01 03:53:30;;;;;;;22.77;7.70;;;;;;;;;;5072414;28;20044;-53
2020/12/01 03:55:56;;;;;;;19.30;8.65;;;;;;;;;;5073562;28;20032;-52
2020/12/01 03:58:22;;;;;;;16.33;6.75;;;;;;;;;;5070969;28;20033;-53
2020/12/01 04:00:48;;;;;;;21.40;8.70;;;;;;;;;;5072885;28;20024;-53
2020/12/01 04:03:14;;;;;;;23.38;9.35;;;;;;;;;;5072559;28;20032;-53
2020/12/01 04:05:40;;;;;;;24.50;7.45;;;;;;;;;;5072522;28;20029;-53
2020/12/01 04:08:10;;;;;;;23.83;9.90;;;;;;;;;;5071614;28;20040;-53
2020/12/01 04:10:36;;;;;;;3.33;2.38;;;;;;;;;;5072601;28;20032;-52
2020/12/01 04:13:02;;;;;;;24.20;9.20;;;;;;;;;;5071983;28;20340;-53
2020/12/01 04:15:28;;;;;;;19.77;7.90;;;;;;;;;;5072918;28;20032;-53
2020/12/01 04:17:54;;;;;;;12.80;5.93;;;;;;;;;;5072359;28;20144;-53
2020/12/01 04:20:21;;;;;;;16.08;7.00;;;;;;;;;;5071655;28;20031;-53
2020/12/01 04:22:47;;;;;;;24.48;9.13;;;;;;;;;;5072004;28;20382;-52
2020/12/01 04:25:14;;;;;;;26.15;9.57;;;;;;;;;;5059244;28;20025;-54
2020/12/01 04:27:40;;;;;;;23.73;9.10;;;;;;;;;;5050988;28;20037;-53
2020/12/01 04:30:07;;;;;;;24.52;10.70;;;;;;;;;;5052678;28;20519;-52
2020/12/01 04:32:33;;;;;;;16.70;7.57;;;;;;;;;;5051693;28;20059;-53
2020/12/01 04:34:59;;;;;;;21.17;7.82;;;;;;;;;;5052249;28;20372;-52
2020/12/01 04:37:25;;;;;;;23.42;7.82;;;;;;;;;;5051439;28;20022;-53
2020/12/01 04:39:51;;;;;;;17.30;8.27;;;;;;;;;;5051947;28;20025;-53
2020/12/01 04:42:18;;;;;;;20.52;8.63;;;;;;;;;;5050751;28;20039;-53
2020/12/01 04:45:02;;;;;;;17.15;7.50;;;;;;;;;;5051897;28;20435;-53
2020/12/01 04:47:30;;;;;;;20.20;8.48;;;;;;;;;;5050993;28;20041;-53
2020/12/01 04:49:58;;;;;;;16.45;7.30;;;;;;;;;;5051774;28;20052;-53
2020/12/01 04:52:43;;;;;;;22.83;8.38;;;;;;;;;;5050702;28;20107;-53
2020/12/01 04:55:15;;;;;;;16.85;8.13;;;;;;;;;;5051246;28;20043;-53
2020/12/01 04:57:50;;;;;;;24.30;9.15;;;;;;;;;;5051264;28;20104;-53
2020/12/01 05:00:32;;;;;;;23.40;8.70;;;;;;;;;;5063185;28;20037;-53
2020/12/01 05:03:04;;;;;;;18.20;8.02;;;;;;;;;;5070181;28;20032;-53
2020/12/01 05:08:23;;;;;;;24.90;8.68;;;;;;;;;;5070278;28;20131;-53
2020/12/01 05:10:51;;;;;;;13.73;6.72;;;;;;;;;;5071760;28;20040;-53
2020/12/01 05:13:19;;;;;;;20.05;9.75;;;;;;;;;;5071111;28;20078;-53
2020/12/01 05:15:46;;;;;;;16.50;6.85;;;;;;;;;;5071273;28;20039;-53
2020/12/01 05:18:12;;;;;;;19.75;8.57;;;;;;;;;;5071004;28;20038;-53
2020/12/01 05:20:46;;;;;;;21.75;9.02;;;;;;;;;;5071098;28;20024;-53
2020/12/01 05:23:13;;;;;;;25.17;8.38;;;;;;;;;;5070700;28;20060;-53
2020/12/01 05:25:39;;;;;;;16.38;6.20;;;;;;;;;;5070566;28;20021;-53
2020/12/01 05:28:08;;;;;;;16.95;7.32;;;;;;;;;;5069790;28;20162;-53
2020/12/01 05:30:34;;;;;;;18.10;7.30;;;;;;;;;;5070830;28;20120;-53
2020/12/01 05:33:04;;;;;;;19.55;8.52;;;;;;;;;;5070777;28;20104;-53
2020/12/01 05:35:32;;;;;;;22.33;9.88;;;;;;;;;;5070430;28;20509;-53
2020/12/01 05:37:58;;;;;;;20.67;9.00;;;;;;;;;;5070489;28;20051;-52
2020/12/01 05:40:26;;;;;;;18.90;8.27;;;;;;;;;;5070243;28;20458;-51
2020/12/01 05:42:52;;;;;;;25.70;10.38;;;;;;;;;;5070819;28;20706;-51
2020/12/01 05:45:24;;;;;;;21.20;9.05;;;;;;;;;;5070515;28;20372;-51
2020/12/01 05:47:53;;;;;;;15.43;7.03;;;;;;;;;;5068713;28;20111;-51
2020/12/01 05:50:22;;;;;;;21.10;8.38;;;;;;;;;;5068040;28;20040;-51
2020/12/01 05:52:48;;;;;;;23.80;9.90;;;;;;;;;;5068416;28;20054;-51
2020/12/01 05:55:19;;;;;;;20.38;8.07;;;;;;;;;;5069708;28;20044;-51
2020/12/01 05:57:45;;;;;;;;;;;;;;;;;;5069563;28;20039;-51
2020/12/01 06:00:14;;;;;;;17.92;8.20;;;;;;;;;;5070640;28;19904;-51
2020/12/01 06:02:58;;;;;;;18.52;8.52;;;;;;;;;;5069771;28;20050;-51
2020/12/01 06:05:24;;;;;;;18.60;7.93;;;;;;;;;;5069699;28;20462;-51
2020/12/01 06:07:53;;;;;;;20.83;8.18;;;;;;;;;;5069361;28;20032;-51
2020/12/01 06:10:30;;;;;;;24.33;9.00;;;;;;;;;;5070684;28;20483;-51
2020/12/01 06:13:10;;;;;;;22.25;8.93;;;;;;;;;;5070249;28;20474;-51
2020/12/01 06:15:40;;;;;;;15.60;6.93;;;;;;;;;;5069922;28;20052;-51
2020/12/01 06:18:09;;;;;;;4.28;2.70;;;;;;;;;;5069772;28;20564;-52
2020/12/01 06:20:54;;;;;;;17.90;8.95;;;;;;;;;;5069889;28;20115;-51
2020/12/01 06:23:26;;;;;;;19.67;9.02;;;;;;;;;;5070005;28;20060;-52
2020/12/01 06:26:10;;;;;;;14.98;6.82;;;;;;;;;;5069601;28;20115;-52
2020/12/01 06:28:55;;;;;;;13.80;5.57;;;;;;;;;;5069669;28;20040;-52
2020/12/01 06:31:36;;;;;;;16.85;6.32;;;;;;;;;;5069943;28;20086;-52
2020/12/01 06:34:14;;;;;;;15.57;7.40;;;;;;;;;;5069225;28;20082;-52
2020/12/01 06:36:59;;;;;;;15.25;5.45;;;;;;;;;;5069537;28;20040;-52
2020/12/01 06:39:34;;;;;;;13.68;6.13;;;;;;;;;;5069987;28;20033;-52
2020/12/01 06:42:09;;;;;;;13.07;5.63;;;;;;;;;;5069962;28;20486;-52
2020/12/01 06:44:35;;;;;;;14.90;5.72;;;;;;;;;;5068938;28;20402;-52
2020/12/01 06:47:01;;;;;;;14.95;6.50;;;;;;;;;;5069593;28;20036;-53
2020/12/01 06:49:29;;;;;;;13.30;5.90;;;;;;;;;;5069548;28;20907;-52
2020/12/01 06:52:06;;;;;;;14.55;6.97;;;;;;;;;;5070014;28;20032;-52
2020/12/01 06:54:33;;;;;;;11.88;6.60;;;;;;;;;;5069910;28;20708;-52
2020/12/01 06:56:59;;;;;;;12.23;6.22;;;;;;;;;;5069703;28;20021;-52
2020/12/01 06:59:25;;;;;;;12.48;5.90;;;;;;;;;;5069390;28;20017;-52
2020/12/01 07:01:51;;;;;;;14.18;6.40;;;;;;;;;;5069217;28;20028;-52
2020/12/01 07:04:22;;;;;;;14.82;6.22;;;;;;;;;;5071301;28;20029;-52
2020/12/01 07:06:57;;;;;;;14.43;5.70;;;;;;;;;;5074038;28;20028;-52
2020/12/01 07:09:30;;;;;;;13.05;5.90;;;;;;;;;;5073778;28;20503;-52
2020/12/01 07:11:59;;;;;;;11.75;5.07;;;;;;;;;;5073512;28;20544;-52
2020/12/01 07:14:31;;;;;;;9.40;5.18;;;;;;;;;;5072245;28;20256;-52
2020/12/01 07:16:57;;;;;;;9.52;5.30;;;;;;;;;;5071854;28;20390;-53
2020/12/01 07:19:41;;;;;;;10.45;5.40;;;;;;;;;;5067856;28;20111;-52
2020/12/01 07:22:19;;;;;;;13.57;6.78;;;;;;;;;;5068450;28;20479;-52
2020/12/01 07:24:45;;;;;;;11.50;5.47;;;;;;;;;;5068718;28;20028;-52
2020/12/01 07:27:15;;;;;;;9.95;5.28;;;;;;;;;;5069773;28;20086;-52
2020/12/01 07:29:46;;;;;;;13.13;5.88;;;;;;;;;;5069617;28;20588;-52
2020/12/01 07:32:16;;;;;;;10.50;4.30;;;;;;;;;;5069052;28;20070;-52
2020/12/01 07:34:42;;;;;;;9.82;4.03;;;;;;;;;;5069006;28;20089;-53
2020/12/01 07:37:17;;;;;;;14.07;5.18;;;;;;;;;;5068694;28;20086;-52
2020/12/01 07:40:03;;;;;;;10.05;5.05;;;;;;;;;;5069769;28;20036;-52
2020/12/01 07:42:33;;;;;;;9.00;4.70;;;;;;;;;;5068844;28;20037;-52
2020/12/01 07:45:01;;;;;;;9.55;4.97;;;;;;;;;;5069360;28;20456;-52
2020/12/01 07:47:28;;;;;;;11.90;5.32;;;;;;;;;;5068505;28;20056;-52
2020/12/01 07:50:13;;;;;;;9.38;4.95;;;;;;;;;;5067790;28;20036;-52
2020/12/01 07:52:44;;;;;;;9.07;4.28;;;;;;;;;;5069293;28;20691;-52
2020/12/01 07:55:30;;;;;;;9.60;4.60;;;;;;;;;;5068296;28;20044;-52
2020/12/01 07:57:57;;;;;;;9.65;4.80;;;;;;;;;;5068042;28;20468;-53
2020/12/01 08:00:23;;;;;;;10.73;4.40;;;;;;;;;;5069481;28;20033;-52
2020/12/01 08:02:49;;;;;;;12.43;5.57;;;;;;;;;;5068861;28;20059;-52
2020/12/01 08:05:15;;;;;;;9.57;4.75;;;;;;;;;;5068807;28;20028;-52
2020/12/01 08:07:41;;;;;;;12.57;4.28;;;;;;;;;;5068678;28;20024;-52
2020/12/01 08:10:07;;;;;;;9.57;4.40;;;;;;;;;;5068364;28;20044;-52
2020/12/01 08:12:35;;;;;;;8.63;3.63;;;;;;;;;;5067478;28;20032;-53
2020/12/01 08:15:01;;;;;;;7.68;4.10;;;;;;;;;;5067799;28;20510;-52
2020/12/01 08:17:29;;;;;;;8.18;4.45;;;;;;;;;;5067203;28;20399;-52
2020/12/01 08:19:55;;;;;;;7.88;3.95;;;;;;;;;;5068268;28;20043;-52
2020/12/01 08:22:30;;;;;;;9.85;4.50;;;;;;;;;;5068406;28;20510;-52
2020/12/01 08:25:00;;;;;;;8.70;3.90;;;;;;;;;;5067500;28;20116;-53
2020/12/01 08:27:30;;;;;;;7.45;3.72;;;;;;;;;;5067472;28;20025;-52
2020/12/01 08:29:59;;;;;;;8.30;4.90;;;;;;;;;;5068592;28;20040;-52
2020/12/01 08:32:33;;;;;;;9.25;4.82;;;;;;;;;;5066933;28;20033;-52
2020/12/01 08:35:05;;;;;;;7.07;4.55;;;;;;;;;;5068479;28;20119;-52
2020/12/01 08:37:43;;;;;;;8.82;3.67;;;;;;;;;;5067535;28;20059;-52
2020/12/01 08:40:12;;;;;;;8.88;4.18;;;;;;;;;;5068735;28;20027;-53
2020/12/01 08:42:48;;;;;;;7.50;3.55;;;;;;;;;;5068382;28;20028;-52
2020/12/01 08:45:14;;;;;;;6.93;4.38;;;;;;;;;;5068510;28;20032;-53
2020/12/01 08:47:43;;;;;;;7.28;3.60;;;;;;;;;;5067325;28;20055;-52
2020/12/01 08:50:24;;;;;;;9.10;3.53;;;;;;;;;;5067945;28;20024;-52
2020/12/01 08:52:50;;;;;;;7.57;3.30;;;;;;;;;;5068290;28;20029;-52
2020/12/01 08:55:28;;;;;;;6.93;3.53;;;;;;;;;;5067280;28;20486;-52
2020/12/01 08:58:06;;;;;;;7.82;4.40;;;;;;;;;;5067234;28;20032;-52
2020/12/01 09:00:34;;;;;;;5.57;3.53;;;;;;;;;;5067377;28;20029;-52
2020/12/01 09:03:06;;;;;;;7.57;4.07;;;;;;;;;;5067635;28;20381;-52
2020/12/01 09:05:34;;;;;;;8.20;3.97;;;;;;;;;;5067756;28;20063;-52
2020/12/01 09:08:38;;;;;;;9.10;3.75;;;;;;;;;;5067254;28;20390;-52
2020/12/01 09:11:41;;;;;;;8.32;3.85;;;;;;;;;;5066326;28;20411;-52
2020/12/01 09:14:03;;;;;;;8.18;3.60;;;;;;;;;;5067413;28;20040;-52
2020/12/01 09:21:53;;;;;;;8.77;4.15;;;;;;;;;;5067451;28;20029;-52
2020/12/01 09:24:23;;;;;;;8.93;3.45;;;;;;;;;;5066625;28;20486;-52
2020/12/01 09:27:03;;;;;;;7.85;3.72;;;;;;;;;;5067552;28;20063;-52
2020/12/01 09:29:29;;;;;;;5.38;3.20;;;;;;;;;;5066764;28;20037;-52
2020/12/01 09:31:55;;;;;;;7.13;3.17;;;;;;;;;;5066814;28;20044;-52
2020/12/01 09:34:21;;;;;;;4.10;2.63;;;;;;;;;;5067244;28;20032;-52
2020/12/01 09:36:47;;;;;;;4.50;2.55;;;;;;;;;;5067299;28;20444;-52
2020/12/01 09:39:13;;;;;;;4.75;2.65;;;;;;;;;;5066941;28;20119;-52
2020/12/01 09:41:43;;;;;;;3.85;3.03;;;;;;;;;;5066300;28;20453;-52
2020/12/01 09:44:35;;;;;;;;;;;;;;;;;;5067513;28;20086;-52
2020/12/01 09:47:02;;;;;;;5.75;3.50;;;;;;;;;;5066390;28;19923;-52
2020/12/01 09:49:28;;;;;;;5.90;3.38;;;;;;;;;;5064882;28;20080;-52
2020/12/01 09:52:00;;;;;;;5.07;2.33;;;;;;;;;;5067137;28;20534;-52
2020/12/01 09:54:42;;;;;;;3.63;2.70;;;;;;;;;;5067088;28;20078;-52
2020/12/01 10:36:17;;;;;;;6.80;3.20;;;;;;;;;;5066502;28;20051;-53
2020/12/01 10:38:43;;;;;;;4.82;2.60;;;;;;;;;;5065357;28;20552;-53
2020/12/01 10:41:09;;;;;;;6.07;3.58;;;;;;;;;;5066485;28;20475;-52
2020/12/01 10:43:35;;;;;;;4.25;2.65;;;;;;;;;;5066056;28;20032;-52
2020/12/01 10:46:01;;;;;;;4.55;2.90;;;;;;;;;;5065692;28;20031;-52
2020/12/01 10:48:27;;;;;;;5.15;2.83;;;;;;;;;;5065942;28;20483;-52
2020/12/01 10:50:54;;;;;;;5.93;3.00;;;;;;;;;;5065544;28;20143;-52
2020/12/01 10:53:20;;;;;;;8.70;3.47;;;;;;;;;;5065822;28;20103;-52
2020/12/01 10:55:46;;;;;;;7.32;3.67;;;;;;;;;;5065870;28;20471;-52
2020/12/01 10:58:12;;;;;;;6.05;3.17;;;;;;;;;;5066014;28;20038;-52
2020/12/01 11:00:38;;;;;;;5.05;2.95;;;;;;;;;;5066439;28;20039;-54
2020/12/01 11:03:04;;;;;;;5.47;2.90;;;;;;;;;;5066132;28;20694;-52
2020/12/01 11:05:31;;;;;;;6.50;3.20;;;;;;;;;;5064968;28;20036;-52
2020/12/01 11:07:58;;;;;;;6.50;3.40;;;;;;;;;;5065536;28;20538;-52
2020/12/01 11:10:24;;;;;;;5.18;3.35;;;;;;;;;;5066217;28;20020;-52
2020/12/01 11:12:50;;;;;;;4.72;2.67;;;;;;;;;;5065876;28;20037;-52
2020/12/01 11:15:17;;;;;;;7.43;3.75;;;;;;;;;;5066047;28;20046;-52
2020/12/01 11:17:43;;;;;;;5.18;3.08;;;;;;;;;;5065848;28;20025;-52
2020/12/01 11:20:11;;;;;;;5.10;3.15;;;;;;;;;;5065102;28;20024;-52
2020/12/01 11:22:37;;;;;;;4.97;3.25;;;;;;;;;;5066015;28;20048;-52
2020/12/01 11:25:03;;;;;;;5.45;3.05;;;;;;;;;;5066038;28;20044;-52
2020/12/01 11:27:29;;;;;;;6.55;3.20;;;;;;;;;;5065589;28;20055;-53
2020/12/01 11:29:55;;;;;;;7.07;3.47;;;;;;;;;;5065850;28;20021;-52
2020/12/01 11:32:21;;;;;;;5.28;2.40;;;;;;;;;;5065423;28;20538;-52
2020/12/01 11:34:47;;;;;;;5.25;3.13;;;;;;;;;;5065376;28;20063;-52
2020/12/01 11:37:13;;;;;;;9.02;2.65;;;;;;;;;;5065161;28;20064;-52
2020/12/01 11:39:39;;;;;;;5.65;3.25;;;;;;;;;;5065981;28;20035;-52
2020/12/01 11:42:05;;;;;;;6.07;3.65;;;;;;;;;;5065697;28;20029;-52
2020/12/01 11:44:31;;;;;;;6.10;2.95;;;;;;;;;;5065564;28;20029;-53
2020/12/01 11:46:58;;;;;;;4.20;2.97;;;;;;;;;;5065217;28;20043;-52
2020/12/01 11:49:24;;;;;;;9.23;3.60;;;;;;;;;;5065491;28;20036;-52
2020/12/01 11:51:50;;;;;;;7.30;3.35;;;;;;;;;;5067902;28;20028;-52
2020/12/01 11:54:16;;;;;;;4.93;3.20;;;;;;;;;;5069494;28;20043;-52
2020/12/01 11:56:43;;;;;;;4.50;2.80;;;;;;;;;;5069525;28;20112;-52
2020/12/01 11:59:09;;;;;;;4.30;2.67;;;;;;;;;;5068899;28;20029;-52
2020/12/01 12:01:35;;;;;;;5.55;3.03;;;;;;;;;;5068844;28;20107;-52
2020/12/01 12:04:02;;;;;;;7.78;3.30;;;;;;;;;;5068954;28;20040;-52
2020/12/01 12:06:28;;;;;;;3.22;2.22;;;;;;;;;;5069265;28;20044;-53
2020/12/01 12:08:54;;;;;;;4.50;2.85;;;;;;;;;;5068893;28;20033;-52
2020/12/01 12:11:20;;;;;;;5.90;2.80;;;;;;;;;;5068705;28;20029;-52
2020/12/01 12:13:46;;;;;;;4.90;2.78;;;;;;;;;;5069210;28;20386;-52
2020/12/01 12:16:16;;;;;;;4.68;3.20;;;;;;;;;;5068233;28;20024;-52
2020/12/01 12:18:42;;;;;;;6.90;2.88;;;;;;;;;;5067810;28;20067;-52
2020/12/01 12:21:08;;;;;;;5.40;3.13;;;;;;;;;;5069485;28;20039;-52
2020/12/01 12:23:34;;;;;;;7.93;3.65;;;;;;;;;;5069136;28;20028;-52
2020/12/01 12:26:00;;;;;;;6.05;3.35;;;;;;;;;;5068720;28;20024;-52
2020/12/01 12:28:26;;;;;;;6.97;3.53;;;;;;;;;;5068543;28;20032;-52
2020/12/01 12:30:52;;;;;;;7.57;3.80;;;;;;;;;;5068188;28;20025;-52
2020/12/01 12:33:18;;;;;;;5.53;3.17;;;;;;;;;;5068579;28;20099;-53
2020/12/01 12:35:44;;;;;;;7.97;3.80;;;;;;;;;;5068317;28;20128;-52
2020/12/01 12:38:10;;;;;;;8.88;3.60;;;;;;;;;;5068451;28;20107;-52
2020/12/01 12:40:36;;;;;;;5.38;3.40;;;;;;;;;;5068615;28;20486;-52
2020/12/01 12:43:03;;;;;;;5.28;3.25;;;;;;;;;;5067689;28;20028;-52
2020/12/01 12:45:30;;;;;;;7.95;4.47;;;;;;;;;;5067151;28;20032;-52
2020/12/01 12:47:57;;;;;;;8.85;3.95;;;;;;;;;;5066565;28;20049;-52
2020/12/01 12:50:23;;;;;;;8.18;4.03;;;;;;;;;;5067944;28;20032;-52
2020/12/01 12:52:49;;;;;;;7.30;4.03;;;;;;;;;;5068382;28;20142;-52
2020/12/01 12:55:15;;;;;;;8.10;4.30;;;;;;;;;;5068192;28;20028;-53
2020/12/01 12:57:41;;;;;;;7.78;4.30;;;;;;;;;;5067702;28;20047;-52
2020/12/01 13:00:08;;;;;;;9.50;4.68;;;;;;;;;;5067495;28;20060;-53
2020/12/01 13:02:34;;;;;;;7.57;4.00;;;;;;;;;;5067459;28;20467;-54
2020/12/01 13:05:00;;;;;;;9.80;4.25;;;;;;;;;;5067792;28;20031;-52
2020/12/01 13:07:26;;;;;;;6.30;3.60;;;;;;;;;;5067319;28;20025;-53
2020/12/01 13:09:52;;;;;;;5.03;3.15;;;;;;;;;;5066474;28;20041;-54
2020/12/01 13:12:18;;;;;;;7.88;4.05;;;;;;;;;;5066303;28;20048;-52
2020/12/01 13:14:44;;;;;;;9.90;4.13;;;;;;;;;;5066859;28;20493;-52
2020/12/01 13:17:10;;;;;;;6.43;3.88;;;;;;;;;;5066963;28;20379;-52
2020/12/01 13:19:36;;;;;;;9.80;4.05;;;;;;;;;;5067222;28;20114;-52
2020/12/01 13:22:02;;;;;;;8.85;3.75;;;;;;;;;;5067392;28;20155;-52
2020/12/01 13:24:28;;;;;;;5.40;3.67;;;;;;;;;;5066646;28;20450;-52
2020/12/01 13:26:54;;;;;;;7.43;3.72;;;;;;;;;;5066838;28;20452;-52
2020/12/01 13:29:20;;;;;;;11.57;5.15;;;;;;;;;;5066929;28;20449;-52
2020/12/01 13:31:49;;;;;;;6.70;4.00;;;;;;;;;;5066732;28;20037;-52
2020/12/01 13:34:16;;;;;;;8.63;3.08;;;;;;;;;;5066497;28;20064;-53
2020/12/01 13:36:43;;;;;;;9.00;3.47;;;;;;;;;;5066744;28;20032;-53
2020/12/01 13:39:09;;;;;;;7.65;3.78;;;;;;;;;;5066817;28;20504;-53
2020/12/01 13:41:36;;;;;;;7.07;3.83;;;;;;;;;;5066540;28;20032;-53
2020/12/01 13:44:02;;;;;;;6.22;3.72;;;;;;;;;;5065968;28;20055;-52
2020/12/01 13:46:28;;;;;;;7.82;3.40;;;;;;;;;;5066411;28;20467;-52
2020/12/01 13:48:54;;;;;;;9.93;4.53;;;;;;;;;;5065354;28;20036;-53
2020/12/01 13:51:20;;;;;;;4.75;3.00;;;;;;;;;;5066435;28;20032;-52
2020/12/01 13:53:46;;;;;;;5.72;3.55;;;;;;;;;;5066886;28;20046;-52
2020/12/01 13:56:12;;;;;;;8.60;4.07;;;;;;;;;;5066285;28;20459;-53
2020/12/01 13:58:37;;;;;;;6.50;2.70;;;;;;;;;;5066013;28;20029;-52
2020/12/01 14:01:03;;;;;;;4.82;2.95;;;;;;;;;;5066994;28;20540;-52
2020/12/01 14:03:29;;;;;;;7.00;3.90;;;;;;;;;;5066400;28;20092;-53
2020/12/01 14:05:55;;;;;;;5.47;3.05;;;;;;;;;;5066695;28;20079;-53
2020/12/01 14:08:22;;;;;;;6.30;3.45;;;;;;;;;;5066361;28;20051;-52
2020/12/01 14:10:48;;;;;;;8.57;4.90;;;;;;;;;;5066632;28;20032;-53
2020/12/01 14:13:14;;;;;;;11.23;4.82;;;;;;;;;;5065682;28;20490;-52
2020/12/01 14:15:40;;;;;;;15.65;4.70;;;;;;;;;;5065326;28;20047;-52
2020/12/01 14:18:06;;;;;;;8.48;3.80;;;;;;;;;;5065649;28;20070;-53
2020/12/01 14:20:32;;;;;;;5.57;3.55;;;;;;;;;;5065992;28;20424;-53
2020/12/01 14:22:59;;;;;;;5.18;3.17;;;;;;;;;;5066110;28;20019;-52
2020/12/01 14:25:25;;;;;;;8.48;3.80;;;;;;;;;;5065462;28;20048;-52
2020/12/01 14:27:51;;;;;;;9.43;3.67;;;;;;;;;;5064779;28;20383;-52
2020/12/01 14:30:20;;;;;;;7.07;3.90;;;;;;;;;;5065803;28;20028;-52
2020/12/01 14:32:46;;;;;;;6.32;3.55;;;;;;;;;;5065198;28;20383;-52
2020/12/01 14:35:14;;;;;;;4.65;3.17;;;;;;;;;;5065980;28;20509;-52
2020/12/01 14:37:40;;;;;;;5.20;3.55;;;;;;;;;;5064201;28;20047;-52
2020/12/01 14:40:07;;;;;;;6.55;3.08;;;;;;;;;;5057254;28;20032;-53
2020/12/01 14:42:33;;;;;;;6.50;3.47;;;;;;;;;;5061916;28;20093;-52
2020/12/01 14:44:59;;;;;;;6.70;3.78;;;;;;;;;;5060876;28;20040;-53
2020/12/01 14:47:48;;;;;;;6.43;4.03;;;;;;;;;;5060385;28;20044;-52
2020/12/01 14:50:14;;;;;;;9.85;4.65;;;;;;;;;;5058902;28;20129;-52
2020/12/01 14:52:52;;;;;;;9.50;5.20;;;;;;;;;;5058323;28;20079;-52
2020/12/01 14:55:27;;;;;;;8.77;5.00;;;;;;;;;;5061824;28;20151;-52
2020/12/01 14:58:09;;;;;;;11.10;5.47;;;;;;;;;;5061496;28;20028;-52
2020/12/01 15:00:54;;;;;;;14.23;6.15;;;;;;;;;;5063938;28;20434;-53
2020/12/01 15:03:45;;;;;;;15.30;7.10;;;;;;;;;;5065522;28;20120;-52
2020/12/01 15:06:17;;;;;;;14.73;6.20;;;;;;;;;;5063798;28;20032;-52
2020/12/01 15:08:48;;;;;;;10.45;5.90;;;;;;;;;;5062581;28;20052;-52
2020/12/01 15:11:17;;;;;;;11.20;5.80;;;;;;;;;;5062807;28;20356;-53
2020/12/01 15:13:44;;;;;;;12.80;6.22;;;;;;;;;;5064113;28;20112;-53
2020/12/01 15:16:13;;;;;;;12.88;5.82;;;;;;;;;;5060874;28;20024;-52
2020/12/01 15:18:40;;;;;;;12.18;6.05;;;;;;;;;;5063749;28;20475;-52
2020/12/01 15:21:07;;;;;;;11.38;6.03;;;;;;;;;;5065219;28;20086;-52
2020/12/01 15:23:40;;;;;;;13.20;6.32;;;;;;;;;;5063628;28;20052;-52
2020/12/01 15:26:08;;;;;;;14.40;6.30;;;;;;;;;;5063849;28;20040;-53
2020/12/01 15:28:36;;;;;;;10.30;6.10;;;;;;;;;;5067148;28;20052;-52
2020/12/01 15:31:02;;;;;;;12.95;6.60;;;;;;;;;;5069421;28;20029;-52